createdAt,value
2018-06-05T00:01:27.118Z,13.50
2018-06-05T00:03:55.800Z,10.60
2018-06-05T00:06:24.493Z,13.87
2018-06-05T00:08:53.189Z,24.53
2018-06-05T00:11:21.867Z,29.97
2018-06-05T00:13:50.538Z,18.60
2018-06-05T00:16:19.238Z,18.00
2018-06-05T00:18:47.933Z,50.70
2018-06-05T00:21:16.610Z,47.10
2018-06-05T00:23:45.125Z,15.00
2018-06-05T00:26:13.830Z,38.50
2018-06-05T00:28:42.519Z,176.23
2018-06-05T00:31:11.185Z,130.33
2018-06-05T00:33:39.691Z,49.60
2018-06-05T00:36:08.378Z,25.97
2018-06-05T00:38:37.070Z,34.80
2018-06-05T00:41:05.778Z,40.43
2018-06-05T00:43:34.465Z,50.90
2018-06-05T00:46:03.148Z,51.13
2018-06-05T00:48:31.880Z,44.00
2018-06-05T00:51:01.393Z,32.47
2018-06-05T00:53:31.465Z,22.83
2018-06-05T00:56:00.144Z,20.57
2018-06-05T00:58:28.837Z,18.57
2018-06-05T01:00:57.518Z,10.33
2018-06-05T01:03:26.214Z,7.10
2018-06-05T01:05:54.885Z,10.37
2018-06-05T01:08:23.609Z,7.83
2018-06-05T01:10:52.124Z,5.80
2018-06-05T01:13:20.805Z,20.97
2018-06-05T01:15:49.518Z,25.63
2018-06-05T01:18:18.210Z,35.63
2018-06-05T01:20:46.905Z,21.10
2018-06-05T01:23:15.593Z,24.73
2018-06-05T01:25:44.332Z,28.33
2018-06-05T01:28:12.997Z,27.73
2018-06-05T01:30:41.490Z,35.63
2018-06-05T01:33:10.190Z,25.37
2018-06-05T01:35:38.862Z,17.20
2018-06-05T01:38:07.564Z,12.73
2018-06-05T01:40:36.271Z,17.20
2018-06-05T01:43:04.974Z,28.13
2018-06-05T01:45:33.645Z,61.57
2018-06-05T01:48:02.322Z,51.10
2018-06-05T01:50:31.092Z,35.67
2018-06-05T01:52:59.770Z,27.57
2018-06-05T01:55:28.476Z,31.60
2018-06-05T01:57:57.142Z,24.97
2018-06-05T02:00:25.807Z,24.87
2018-06-05T02:02:54.310Z,19.97
2018-06-05T02:05:23.001Z,17.03
2018-06-05T02:07:51.677Z,15.40
2018-06-05T02:10:20.348Z,19.80
2018-06-05T02:12:48.845Z,21.80
2018-06-05T02:15:17.531Z,15.87
2018-06-05T02:17:46.212Z,10.70
2018-06-05T02:20:14.885Z,9.70
2018-06-05T02:22:43.580Z,15.23
2018-06-05T02:25:12.296Z,24.00
2018-06-05T02:27:40.958Z,10.63
2018-06-05T02:30:09.671Z,14.80
2018-06-05T02:32:38.398Z,12.67
2018-06-05T02:35:06.878Z,15.20
2018-06-05T02:37:35.360Z,15.30
2018-06-05T02:40:04.120Z,17.73
2018-06-05T02:42:32.821Z,27.43
2018-06-05T02:45:01.536Z,18.60
2018-06-05T02:47:30.217Z,17.43
2018-06-05T02:49:58.898Z,11.27
2018-06-05T02:52:27.377Z,29.77
2018-06-05T02:54:55.872Z,18.50
2018-06-05T02:57:24.590Z,13.13
2018-06-05T02:59:53.288Z,10.83
2018-06-05T03:02:21.973Z,16.10
2018-06-05T03:04:50.645Z,14.33
2018-06-05T03:07:19.395Z,13.87
2018-06-05T03:09:48.063Z,15.77
2018-06-05T03:12:16.745Z,15.13
2018-06-05T03:14:45.440Z,18.33
2018-06-05T03:17:13.918Z,14.33
2018-06-05T03:19:42.572Z,13.77
2018-06-05T03:22:11.245Z,12.10
2018-06-05T03:24:39.940Z,14.43
2018-06-05T03:27:08.631Z,22.97
2018-06-05T03:29:37.297Z,29.20
2018-06-05T03:32:08.923Z,26.00
2018-06-05T03:34:37.605Z,18.63
2018-06-05T03:37:06.321Z,14.37
2018-06-05T03:39:35.013Z,11.33
2018-06-05T03:42:03.742Z,10.90
2018-06-05T03:44:32.275Z,8.70
2018-06-05T03:47:00.965Z,7.33
2018-06-05T03:49:34.150Z,7.13
2018-06-05T03:52:02.855Z,7.53
2018-06-05T03:54:31.530Z,7.97
2018-06-05T03:57:00.230Z,7.40
2018-06-05T03:59:28.903Z,6.30
2018-06-05T04:01:57.621Z,5.50
2018-06-05T04:04:26.397Z,7.57
2018-06-05T04:06:55.055Z,25.63
2018-06-05T04:09:24.226Z,33.70
2018-06-05T04:11:53.018Z,28.03
2018-06-05T04:14:21.682Z,20.17
2018-06-05T04:16:51.289Z,16.97
2018-06-05T04:19:20.090Z,24.87
2018-06-05T04:21:48.770Z,22.50
2018-06-05T04:24:17.451Z,19.83
2018-06-05T04:26:46.145Z,12.83
2018-06-05T04:29:14.838Z,10.83
2018-06-05T04:31:43.498Z,11.40
2018-06-05T04:34:12.003Z,15.23
2018-06-05T04:36:40.679Z,14.97
2018-06-05T04:39:09.398Z,16.17
2018-06-05T04:41:38.106Z,15.50
2018-06-05T04:44:06.798Z,14.23
2018-06-05T04:46:35.517Z,18.17
2018-06-05T04:49:04.212Z,17.03
2018-06-05T04:51:32.898Z,11.77
2018-06-05T04:54:01.571Z,15.87
2018-06-05T04:56:30.240Z,13.50
2018-06-05T04:58:58.717Z,14.33
2018-06-05T05:01:27.259Z,13.63
2018-06-05T05:03:55.945Z,15.53
2018-06-05T05:06:24.665Z,12.10
2018-06-05T05:08:53.927Z,14.33
2018-06-05T05:11:22.593Z,13.87
2018-06-05T05:13:51.283Z,12.40
2018-06-05T05:16:20.017Z,14.90
2018-06-05T05:18:48.750Z,15.13
2018-06-05T05:21:18.088Z,17.20
2018-06-05T05:23:46.770Z,21.23
2018-06-05T05:26:15.573Z,16.33
2018-06-05T05:28:44.266Z,7.13
2018-06-05T05:31:12.958Z,7.23
2018-06-05T05:33:41.473Z,6.53
2018-06-05T05:36:10.146Z,6.43
2018-06-05T05:38:39.008Z,5.80
2018-06-05T05:41:07.504Z,6.10
2018-06-05T05:43:36.210Z,10.50
2018-06-05T05:46:04.898Z,13.73
2018-06-05T05:48:33.591Z,9.10
2018-06-05T05:51:02.950Z,18.53
2018-06-05T05:53:31.433Z,11.37
2018-06-05T05:56:00.730Z,12.43
2018-06-05T05:58:29.230Z,13.20
2018-06-05T06:00:57.946Z,13.27
2018-06-05T06:03:26.638Z,13.07
2018-06-05T06:05:55.301Z,8.53
2018-06-05T06:08:23.978Z,10.13
2018-06-05T06:10:52.759Z,10.87
2018-06-05T06:13:21.596Z,11.47
2018-06-05T06:15:50.290Z,12.13
2018-06-05T06:18:18.966Z,9.20
2018-06-05T06:20:47.666Z,12.27
2018-06-05T06:23:16.350Z,9.77
2018-06-05T06:25:45.021Z,11.77
2018-06-05T06:28:13.733Z,9.70
2018-06-05T06:30:42.443Z,5.53
2018-06-05T06:33:11.093Z,6.97
2018-06-05T06:35:39.799Z,7.00
2018-06-05T06:38:08.313Z,5.83
2018-06-05T06:40:37.049Z,4.27
2018-06-05T06:43:05.748Z,6.83
2018-06-05T06:45:34.454Z,5.40
2018-06-05T06:48:03.156Z,5.60
2018-06-05T06:50:31.860Z,5.77
2018-06-05T06:53:00.558Z,4.70
2018-06-05T06:55:29.239Z,7.73
2018-06-05T06:57:57.924Z,7.70
2018-06-05T07:00:26.711Z,7.53
2018-06-05T07:02:56.992Z,6.30
2018-06-05T07:05:25.706Z,5.30
2018-06-05T07:07:54.446Z,5.87
2018-06-05T07:10:23.143Z,6.50
2018-06-05T07:12:51.839Z,5.67
2018-06-05T07:15:20.548Z,8.70
2018-06-05T07:17:49.255Z,4.97
2018-06-05T07:20:17.934Z,7.30
2018-06-05T07:22:46.633Z,5.23
2018-06-05T07:25:15.364Z,4.43
2018-06-05T07:27:44.079Z,4.63
2018-06-05T07:30:12.801Z,8.03
2018-06-05T07:32:41.316Z,5.93
2018-06-05T07:35:10.074Z,4.37
2018-06-05T07:37:38.812Z,7.87
2018-06-05T07:40:07.567Z,7.50
2018-06-05T07:42:36.290Z,5.03
2018-06-05T07:45:05.146Z,8.63
2018-06-05T07:47:33.653Z,4.40
2018-06-05T07:50:02.431Z,5.40
2018-06-05T07:52:31.103Z,4.60
2018-06-05T07:54:59.628Z,6.57
2018-06-05T07:57:28.349Z,6.60
2018-06-05T07:59:57.048Z,5.80
2018-06-05T08:02:25.799Z,6.63
2018-06-05T08:04:54.534Z,5.03
2018-06-05T08:07:23.267Z,6.10
2018-06-05T08:09:52.898Z,6.43
2018-06-05T08:12:21.614Z,7.80
2018-06-05T08:14:50.359Z,6.93
2018-06-05T08:17:19.073Z,7.13
2018-06-05T08:19:47.579Z,3.67
2018-06-05T08:22:16.284Z,3.30
2018-06-05T08:24:44.993Z,3.77
2018-06-05T08:27:13.706Z,5.27
2018-06-05T08:29:42.215Z,6.20
2018-06-05T08:32:16.294Z,4.57
2018-06-05T08:34:44.855Z,4.33
2018-06-05T08:37:13.586Z,3.90
2018-06-05T08:39:42.309Z,5.75
2018-06-05T08:42:11.026Z,2.27
2018-06-05T08:44:39.729Z,5.08
2018-06-05T08:47:08.254Z,4.50
2018-06-05T08:49:38.874Z,2.40
2018-06-05T08:52:07.606Z,4.35
2018-06-05T08:54:36.339Z,3.52
2018-06-05T08:57:05.101Z,2.55
2018-06-05T08:59:33.639Z,5.08
2018-06-05T09:02:02.399Z,3.42
2018-06-05T09:04:31.151Z,2.42
2018-06-05T09:07:00.743Z,3.55
2018-06-05T09:09:29.466Z,3.77
2018-06-05T09:11:58.184Z,4.47
2018-06-05T09:14:26.889Z,3.02
2018-06-05T09:16:55.641Z,2.77
2018-06-05T09:19:24.366Z,8.08
2018-06-05T09:21:53.152Z,2.37
2018-06-05T09:24:21.925Z,1.90
2018-06-05T09:26:50.719Z,2.90
2018-06-05T09:29:19.494Z,3.58
2018-06-05T09:31:48.260Z,2.52
2018-06-05T09:34:17.075Z,4.75
2018-06-05T09:36:45.836Z,2.25
2018-06-05T09:39:14.621Z,3.77
2018-06-05T09:41:43.340Z,2.45
2018-06-05T09:44:12.069Z,3.60
2018-06-05T09:46:40.848Z,3.75
2018-06-05T09:49:09.579Z,4.15
2018-06-05T09:51:38.334Z,1.52
2018-06-05T09:54:07.086Z,2.02
2018-06-05T09:56:35.818Z,2.37
2018-06-05T09:59:04.599Z,3.98
2018-06-05T10:01:33.326Z,3.42
2018-06-05T10:04:02.046Z,4.20
2018-06-05T10:06:30.796Z,4.97
2018-06-05T10:08:59.592Z,5.15
2018-06-05T10:11:28.330Z,2.70
2018-06-05T10:13:56.903Z,3.65
2018-06-05T10:16:25.439Z,6.15
2018-06-05T10:18:54.186Z,3.45
2018-06-05T10:21:22.946Z,6.42
2018-06-05T10:23:51.661Z,3.17
2018-06-05T10:26:20.382Z,2.98
2018-06-05T10:28:49.124Z,3.92
2018-06-05T10:31:17.646Z,3.67
2018-06-05T10:33:46.346Z,5.22
2018-06-05T10:36:15.101Z,7.25
2018-06-05T10:38:43.874Z,4.85
2018-06-05T10:41:12.596Z,3.33
2018-06-05T10:43:41.334Z,2.22
2018-06-05T10:46:09.846Z,5.47
2018-06-05T10:48:38.864Z,3.20
2018-06-05T10:51:07.652Z,3.05
2018-06-05T10:53:36.422Z,4.55
2018-06-05T10:56:05.220Z,4.83
2018-06-05T10:58:34.068Z,5.12
2018-06-05T11:01:02.872Z,5.83
2018-06-05T11:03:31.607Z,4.00
2018-06-05T11:06:00.416Z,2.83
2018-06-05T11:08:29.189Z,3.40
2018-06-05T11:10:58.006Z,5.03
2018-06-05T11:13:26.809Z,4.12
2018-06-05T11:15:55.604Z,3.83
2018-06-05T11:18:24.386Z,5.25
2018-06-05T11:20:52.881Z,3.50
2018-06-05T11:23:21.653Z,4.58
2018-06-05T11:25:50.487Z,2.27
2018-06-05T11:28:19.295Z,3.65
2018-06-05T11:30:48.153Z,3.37
2018-06-05T11:33:16.901Z,2.65
2018-06-05T11:35:45.668Z,3.55
2018-06-05T11:38:14.552Z,3.75
2018-06-05T11:40:43.317Z,2.47
2018-06-05T11:43:12.039Z,2.02
2018-06-05T11:45:40.571Z,2.27
2018-06-05T11:48:09.331Z,2.75
2018-06-05T11:50:38.092Z,3.85
2018-06-05T11:53:06.644Z,1.80
2018-06-05T11:55:35.394Z,1.98
2018-06-05T11:58:04.119Z,2.05
2018-06-05T12:00:32.816Z,1.87
2018-06-05T12:03:01.555Z,1.45
2018-06-05T12:05:30.311Z,2.05
2018-06-05T12:07:59.089Z,2.95
2018-06-05T12:10:27.833Z,2.65
2018-06-05T12:12:56.568Z,2.40
2018-06-05T12:15:25.376Z,2.50
2018-06-05T12:17:54.094Z,2.92
2018-06-05T12:20:22.806Z,4.47
2018-06-05T12:22:51.539Z,2.42
2018-06-05T12:25:20.261Z,4.37
2018-06-05T12:27:49.796Z,1.98
2018-06-05T12:30:18.527Z,4.50
2018-06-05T12:32:47.311Z,6.72
2018-06-05T12:35:16.145Z,2.62
2018-06-05T12:37:44.868Z,3.70
2018-06-05T12:40:13.614Z,3.65
2018-06-05T12:42:42.360Z,3.25
2018-06-05T12:45:11.081Z,2.55
2018-06-05T12:47:39.866Z,2.00
2018-06-05T12:50:08.606Z,3.67
2018-06-05T12:52:37.359Z,1.60
2018-06-05T12:55:05.919Z,5.90
2018-06-05T12:57:34.671Z,4.15
2018-06-05T13:00:03.842Z,3.98
2018-06-05T13:02:32.843Z,2.20
2018-06-05T13:05:01.366Z,2.52
2018-06-05T13:07:30.097Z,1.50
2018-06-05T13:09:58.915Z,8.08
2018-06-05T13:12:27.635Z,4.15
2018-06-05T13:14:57.429Z,3.42
2018-06-05T13:17:26.250Z,3.62
2018-06-05T13:19:55.014Z,3.95
2018-06-05T13:22:23.858Z,3.70
2018-06-05T13:24:52.438Z,2.17
2018-06-05T13:27:21.178Z,2.95
2018-06-05T13:29:49.968Z,3.05
2018-06-05T13:32:18.763Z,4.37
2018-06-05T13:34:47.526Z,5.15
2018-06-05T13:37:16.276Z,6.17
2018-06-05T13:39:44.778Z,4.12
2018-06-05T13:42:13.531Z,3.95
2018-06-05T13:44:42.254Z,4.33
2018-06-05T13:47:11.032Z,4.83
2018-06-05T13:49:39.759Z,3.98
2018-06-05T13:52:08.509Z,3.58
2018-06-05T13:54:37.201Z,2.58
2018-06-05T13:57:05.958Z,2.40
2018-06-05T13:59:34.687Z,2.58
2018-06-05T14:02:03.403Z,3.85
2018-06-05T14:04:32.174Z,3.52
2018-06-05T14:07:00.901Z,5.42
2018-06-05T14:09:29.475Z,2.45
2018-06-05T14:11:58.191Z,3.98
2018-06-05T14:14:26.906Z,4.92
2018-06-05T14:17:01.154Z,4.40
2018-06-05T14:19:30.235Z,4.55
2018-06-05T14:21:58.959Z,3.47
2018-06-05T14:24:27.468Z,3.72
2018-06-05T14:26:56.158Z,3.85
2018-06-05T14:29:24.867Z,4.45
2018-06-05T14:31:53.561Z,3.85
2018-06-05T14:34:22.278Z,4.28
2018-06-05T14:36:50.783Z,1.95
2018-06-05T14:39:19.501Z,2.90
2018-06-05T14:41:48.379Z,2.65
2018-06-05T14:44:17.828Z,3.30
2018-06-05T14:46:46.974Z,3.87
2018-06-05T14:49:16.466Z,6.58
2018-06-05T14:51:46.009Z,3.15
2018-06-05T14:54:15.563Z,3.98
2018-06-05T14:56:45.117Z,3.80
2018-06-05T14:59:14.881Z,2.72
2018-06-05T15:01:44.306Z,7.00
2018-06-05T15:04:13.014Z,2.22
2018-06-05T15:06:41.709Z,5.22
2018-06-05T15:09:10.426Z,12.25
2018-06-05T15:11:38.922Z,4.50
2018-06-05T15:14:07.614Z,3.22
2018-06-05T15:16:36.375Z,3.85
2018-06-05T15:19:05.342Z,3.70
2018-06-05T15:21:34.062Z,3.52
2018-06-05T15:24:02.589Z,4.05
2018-06-05T15:26:31.356Z,4.83
2018-06-05T15:29:00.112Z,3.37
2018-06-05T15:31:28.819Z,4.35
2018-06-05T15:33:57.574Z,3.55
2018-06-05T15:36:26.312Z,3.55
2018-06-05T15:38:55.055Z,4.80
2018-06-05T15:41:23.826Z,3.20
2018-06-05T15:43:52.550Z,4.00
2018-06-05T15:46:21.235Z,3.40
2018-06-05T15:48:49.962Z,3.00
2018-06-05T15:51:18.635Z,4.40
2018-06-05T15:53:47.454Z,4.87
2018-06-05T15:56:16.199Z,4.80
2018-06-05T15:58:44.947Z,4.70
2018-06-05T16:01:13.679Z,4.60
2018-06-05T16:03:42.389Z,7.95
2018-06-05T16:06:11.132Z,4.13
2018-06-05T16:08:40.185Z,4.75
2018-06-05T16:11:08.919Z,5.70
2018-06-05T16:13:37.647Z,6.10
2018-06-05T16:16:06.421Z,3.27
2018-06-05T16:18:35.196Z,5.70
2018-06-05T16:21:04.934Z,4.33
2018-06-05T16:23:33.641Z,2.70
2018-06-05T16:26:02.471Z,3.47
2018-06-05T16:28:31.167Z,5.07
2018-06-05T16:30:59.899Z,4.23
2018-06-05T16:33:28.720Z,2.73
2018-06-05T16:35:57.429Z,3.00
2018-06-05T16:38:26.192Z,5.63
2018-06-05T16:40:55.927Z,4.53
2018-06-05T16:43:24.686Z,5.97
2018-06-05T16:45:53.467Z,5.53
2018-06-05T16:48:22.005Z,2.55
2018-06-05T16:50:50.781Z,5.75
2018-06-05T16:53:19.552Z,2.55
2018-06-05T16:55:48.385Z,2.72
2018-06-05T16:58:17.267Z,6.55
2018-06-05T17:00:46.070Z,2.05
2018-06-05T17:03:14.939Z,2.20
2018-06-05T17:05:43.654Z,4.35
2018-06-05T17:08:12.175Z,3.90
2018-06-05T17:10:40.947Z,2.95
2018-06-05T17:13:09.759Z,3.67
2018-06-05T17:15:38.524Z,6.78
2018-06-05T17:18:07.254Z,3.52
2018-06-05T17:20:36.006Z,4.15
2018-06-05T17:23:05.904Z,2.08
2018-06-05T17:25:34.653Z,3.90
2018-06-05T17:28:03.374Z,3.37
2018-06-05T17:30:32.996Z,3.17
2018-06-05T17:33:01.736Z,3.33
2018-06-05T17:35:30.474Z,5.03
2018-06-05T17:37:59.198Z,4.37
2018-06-05T17:40:28.016Z,3.50
2018-06-05T17:42:56.718Z,2.80
2018-06-05T17:45:25.469Z,5.07
2018-06-05T17:47:54.195Z,8.40
2018-06-05T17:50:22.905Z,5.30
2018-06-05T17:52:51.625Z,5.23
2018-06-05T17:55:20.334Z,6.97
2018-06-05T17:57:49.120Z,3.87
2018-06-05T18:00:17.847Z,5.37
2018-06-05T18:02:46.539Z,4.10
2018-06-05T18:05:15.268Z,5.90
2018-06-05T18:07:43.991Z,3.83
2018-06-05T18:10:12.713Z,5.27
2018-06-05T18:12:41.408Z,3.47
2018-06-05T18:15:10.159Z,3.63
2018-06-05T18:17:38.853Z,5.50
2018-06-05T18:20:07.571Z,6.13
2018-06-05T18:22:36.336Z,8.23
2018-06-05T18:25:06.306Z,8.40
2018-06-05T18:27:35.066Z,5.30
2018-06-05T18:30:05.041Z,6.23
2018-06-05T18:32:33.768Z,3.80
2018-06-05T18:35:02.526Z,4.43
2018-06-05T18:37:31.303Z,5.10
2018-06-05T18:40:00.029Z,8.00
2018-06-05T18:42:28.824Z,7.33
2018-06-05T18:44:57.728Z,6.07
2018-06-05T18:47:26.478Z,3.93
2018-06-05T18:49:58.439Z,5.10
2018-06-05T18:52:27.221Z,6.43
2018-06-05T18:54:56.047Z,5.13
2018-06-05T18:57:24.849Z,4.87
2018-06-05T18:59:53.686Z,4.37
2018-06-05T19:02:22.461Z,5.60
2018-06-05T19:04:51.243Z,2.97
2018-06-05T19:07:19.954Z,5.57
2018-06-05T19:09:48.944Z,6.20
2018-06-05T19:12:17.760Z,5.77
2018-06-05T19:14:46.433Z,5.00
2018-06-05T19:17:15.243Z,4.83
2018-06-05T19:19:44.731Z,5.17
2018-06-05T19:22:13.451Z,6.17
2018-06-05T19:24:42.508Z,5.27
2018-06-05T19:27:11.337Z,5.17
2018-06-05T19:29:40.156Z,6.53
2018-06-05T19:32:08.921Z,7.30
2018-06-05T19:34:37.688Z,8.40
2018-06-05T19:37:06.451Z,5.20
2018-06-05T19:39:35.198Z,5.47
2018-06-05T19:42:04.056Z,7.97
2018-06-05T19:44:32.603Z,7.70
2018-06-05T19:47:01.423Z,5.67
2018-06-05T19:49:29.943Z,6.60
2018-06-05T19:51:58.710Z,6.57
2018-06-05T19:54:27.511Z,7.90
2018-06-05T19:56:56.279Z,6.77
2018-06-05T19:59:25.046Z,4.60
2018-06-05T20:01:53.766Z,5.47
2018-06-05T20:04:23.524Z,4.33
2018-06-05T20:06:52.315Z,5.30
2018-06-05T20:09:21.051Z,4.57
2018-06-05T20:11:49.826Z,4.33
2018-06-05T20:14:18.596Z,4.77
2018-06-05T20:16:47.086Z,4.33
2018-06-05T20:19:15.630Z,4.33
2018-06-05T20:21:44.377Z,4.70
2018-06-05T20:24:13.699Z,4.97
2018-06-05T20:26:42.541Z,7.43
2018-06-05T20:29:11.946Z,8.90
2018-06-05T20:31:40.706Z,4.63
2018-06-05T20:34:09.481Z,7.43
2018-06-05T20:36:38.328Z,5.83
2018-06-05T20:39:09.876Z,6.07
2018-06-05T20:41:39.699Z,4.77
2018-06-05T20:44:09.077Z,5.17
2018-06-05T20:46:38.226Z,4.20
2018-06-05T20:49:07.080Z,6.47
2018-06-05T20:51:35.918Z,5.20
2018-06-05T20:54:04.715Z,6.07
2018-06-05T20:56:33.469Z,5.70
2018-06-05T20:59:02.211Z,6.13
2018-06-05T21:01:31.003Z,4.00
2018-06-05T21:03:59.754Z,6.60
2018-06-05T21:06:28.541Z,6.83
2018-06-05T21:08:57.276Z,4.93
2018-06-05T21:11:26.018Z,6.33
2018-06-05T21:13:54.727Z,4.37
2018-06-05T21:16:23.459Z,5.17
2018-06-05T21:18:52.165Z,6.63
2018-06-05T21:21:20.899Z,7.10
2018-06-05T21:23:49.593Z,6.37
2018-06-05T21:26:18.323Z,4.73
2018-06-05T21:28:47.066Z,6.50
2018-06-05T21:31:17.389Z,6.60
2018-06-05T21:33:46.100Z,7.53
2018-06-05T21:36:14.790Z,6.97
2018-06-05T21:38:43.498Z,6.83
2018-06-05T21:41:12.084Z,10.70
2018-06-05T21:43:40.892Z,8.20
2018-06-05T21:46:09.614Z,6.90
2018-06-05T21:48:38.386Z,7.57
2018-06-05T21:51:07.208Z,6.60
2018-06-05T21:53:36.886Z,7.63
2018-06-05T21:56:05.911Z,5.93
2018-06-05T21:58:34.593Z,5.47
2018-06-05T22:01:03.666Z,8.23
2018-06-05T22:03:32.406Z,6.97
2018-06-05T22:06:01.074Z,5.87
2018-06-05T22:08:29.754Z,6.60
2018-06-05T22:10:59.204Z,6.47
2018-06-05T22:13:27.881Z,7.10
2018-06-05T22:15:56.618Z,6.13
2018-06-05T22:18:25.751Z,7.10
2018-06-05T22:20:54.441Z,7.43
2018-06-05T22:23:23.119Z,6.80
2018-06-05T22:25:51.818Z,5.13
2018-06-05T22:28:20.305Z,7.37
2018-06-05T22:30:49.039Z,7.00
2018-06-05T22:33:20.958Z,6.67
2018-06-05T22:35:49.647Z,8.63
2018-06-05T22:38:18.434Z,6.23
2018-06-05T22:40:47.092Z,7.13
2018-06-05T22:43:15.776Z,6.27
2018-06-05T22:45:44.481Z,7.93
2018-06-05T22:48:13.013Z,7.40
2018-06-05T22:50:41.681Z,5.30
2018-06-05T22:53:10.407Z,6.93
2018-06-05T22:55:39.071Z,8.40
2018-06-05T22:58:07.779Z,6.87
2018-06-05T23:00:36.451Z,8.07
2018-06-05T23:03:05.174Z,7.27
2018-06-05T23:05:33.654Z,9.83
2018-06-05T23:08:02.341Z,6.03
2018-06-05T23:10:31.034Z,6.57
2018-06-05T23:12:59.741Z,6.13
2018-06-05T23:15:28.414Z,8.27
2018-06-05T23:17:57.073Z,8.73
2018-06-05T23:20:25.821Z,6.40
2018-06-05T23:22:54.506Z,7.40
2018-06-05T23:25:23.193Z,6.47
2018-06-05T23:27:51.894Z,8.87
2018-06-05T23:30:20.598Z,9.03
2018-06-05T23:32:51.821Z,7.43
2018-06-05T23:35:20.595Z,8.53
2018-06-05T23:37:49.273Z,9.37
2018-06-05T23:40:17.938Z,6.13
2018-06-05T23:42:46.609Z,8.03
2018-06-05T23:45:15.394Z,7.40
2018-06-05T23:47:44.066Z,7.90
2018-06-05T23:50:12.751Z,7.70
2018-06-05T23:52:41.239Z,6.70
2018-06-05T23:55:09.946Z,10.30
2018-06-05T23:57:38.634Z,6.43
